sensor_id;sensor_type;location;lat;lon;timestamp;P1;durP1;ratioP1;P2;durP2;ratioP2
22415;SDS011;12204;50.600;4.608;2023-07-31T00:02:53;10.35;;;3.20;;
22415;SDS011;12204;50.600;4.608;2023-07-31T00:07:59;11.75;;;3.10;;
22415;SDS011;12204;50.600;4.608;2023-07-31T00:13:03;10.10;;;3.22;;
22415;SDS011;12204;50.600;4.608;2023-07-31T00:18:07;8.27;;;2.95;;
22415;SDS011;12204;50.600;4.608;2023-07-31T00:23:11;10.23;;;2.65;;
22415;SDS011;12204;50.600;4.608;2023-07-31T00:28:14;10.02;;;2.88;;
22415;SDS011;12204;50.600;4.608;2023-07-31T00:33:19;7.63;;;2.80;;
22415;SDS011;12204;50.600;4.608;2023-07-31T00:38:23;9.48;;;3.08;;
22415;SDS011;12204;50.600;4.608;2023-07-31T00:43:26;8.00;;;3.20;;
22415;SDS011;12204;50.600;4.608;2023-07-31T00:48:31;10.80;;;2.70;;
22415;SDS011;12204;50.600;4.608;2023-07-31T00:53:35;9.80;;;2.83;;
22415;SDS011;12204;50.600;4.608;2023-07-31T00:58:40;9.98;;;3.00;;
22415;SDS011;12204;50.600;4.608;2023-07-31T01:03:45;11.00;;;2.80;;
22415;SDS011;12204;50.600;4.608;2023-07-31T01:08:51;9.15;;;2.65;;
22415;SDS011;12204;50.600;4.608;2023-07-31T01:14:04;8.25;;;2.83;;
22415;SDS011;12204;50.600;4.608;2023-07-31T01:19:10;8.00;;;2.55;;
22415;SDS011;12204;50.600;4.608;2023-07-31T01:24:20;7.60;;;2.50;;
22415;SDS011;12204;50.600;4.608;2023-07-31T01:29:34;7.57;;;2.63;;
22415;SDS011;12204;50.600;4.608;2023-07-31T01:34:48;7.80;;;2.83;;
22415;SDS011;12204;50.600;4.608;2023-07-31T01:39:53;7.35;;;2.70;;
22415;SDS011;12204;50.600;4.608;2023-07-31T01:44:58;8.18;;;2.80;;
22415;SDS011;12204;50.600;4.608;2023-07-31T01:50:02;7.38;;;2.53;;
22415;SDS011;12204;50.600;4.608;2023-07-31T01:55:07;9.77;;;2.35;;
22415;SDS011;12204;50.600;4.608;2023-07-31T02:00:12;9.07;;;2.80;;
22415;SDS011;12204;50.600;4.608;2023-07-31T02:05:17;11.35;;;2.60;;
22415;SDS011;12204;50.600;4.608;2023-07-31T02:10:21;7.55;;;2.58;;
22415;SDS011;12204;50.600;4.608;2023-07-31T02:15:26;8.27;;;2.30;;
22415;SDS011;12204;50.600;4.608;2023-07-31T02:20:32;6.47;;;2.38;;
22415;SDS011;12204;50.600;4.608;2023-07-31T02:25:37;7.72;;;2.30;;
22415;SDS011;12204;50.600;4.608;2023-07-31T02:30:43;6.82;;;2.40;;
22415;SDS011;12204;50.600;4.608;2023-07-31T02:35:48;10.02;;;2.30;;
22415;SDS011;12204;50.600;4.608;2023-07-31T02:40:51;6.82;;;2.20;;
22415;SDS011;12204;50.600;4.608;2023-07-31T02:45:56;6.13;;;2.30;;
22415;SDS011;12204;50.600;4.608;2023-07-31T02:51:00;5.93;;;2.45;;
22415;SDS011;12204;50.600;4.608;2023-07-31T02:56:04;5.00;;;2.00;;
22415;SDS011;12204;50.600;4.608;2023-07-31T03:01:09;6.25;;;2.30;;
22415;SDS011;12204;50.600;4.608;2023-07-31T03:06:12;5.93;;;2.20;;
22415;SDS011;12204;50.600;4.608;2023-07-31T03:11:16;7.72;;;2.13;;
22415;SDS011;12204;50.600;4.608;2023-07-31T03:16:21;7.22;;;2.10;;
22415;SDS011;12204;50.600;4.608;2023-07-31T03:21:24;8.65;;;2.13;;
22415;SDS011;12204;50.600;4.608;2023-07-31T03:26:28;9.32;;;2.17;;
22415;SDS011;12204;50.600;4.608;2023-07-31T03:31:35;8.27;;;2.40;;
22415;SDS011;12204;50.600;4.608;2023-07-31T03:36:39;7.43;;;2.40;;
22415;SDS011;12204;50.600;4.608;2023-07-31T03:41:44;13.00;;;2.40;;
22415;SDS011;12204;50.600;4.608;2023-07-31T03:46:48;6.53;;;2.10;;
22415;SDS011;12204;50.600;4.608;2023-07-31T03:51:53;8.25;;;2.20;;
22415;SDS011;12204;50.600;4.608;2023-07-31T03:56:57;5.03;;;1.98;;
22415;SDS011;12204;50.600;4.608;2023-07-31T04:02:02;7.53;;;2.17;;
22415;SDS011;12204;50.600;4.608;2023-07-31T04:07:06;7.32;;;2.33;;
22415;SDS011;12204;50.600;4.608;2023-07-31T04:12:09;8.25;;;1.92;;
22415;SDS011;12204;50.600;4.608;2023-07-31T04:17:14;7.70;;;2.22;;
22415;SDS011;12204;50.600;4.608;2023-07-31T04:22:18;5.38;;;2.17;;
22415;SDS011;12204;50.600;4.608;2023-07-31T04:27:21;7.78;;;2.20;;
22415;SDS011;12204;50.600;4.608;2023-07-31T04:32:26;10.95;;;2.42;;
22415;SDS011;12204;50.600;4.608;2023-07-31T04:37:31;6.05;;;1.83;;
22415;SDS011;12204;50.600;4.608;2023-07-31T04:42:34;9.45;;;2.30;;
22415;SDS011;12204;50.600;4.608;2023-07-31T04:47:39;13.18;;;2.28;;
22415;SDS011;12204;50.600;4.608;2023-07-31T04:52:42;6.95;;;1.98;;
22415;SDS011;12204;50.600;4.608;2023-07-31T04:57:46;8.13;;;2.00;;
22415;SDS011;12204;50.600;4.608;2023-07-31T05:02:51;7.10;;;1.95;;
22415;SDS011;12204;50.600;4.608;2023-07-31T05:07:54;5.20;;;2.08;;
22415;SDS011;12204;50.600;4.608;2023-07-31T05:12:58;8.18;;;2.00;;
22415;SDS011;12204;50.600;4.608;2023-07-31T05:18:03;8.23;;;1.88;;
22415;SDS011;12204;50.600;4.608;2023-07-31T05:23:06;7.97;;;1.98;;
22415;SDS011;12204;50.600;4.608;2023-07-31T05:28:11;8.10;;;2.00;;
22415;SDS011;12204;50.600;4.608;2023-07-31T05:33:16;7.15;;;2.00;;
22415;SDS011;12204;50.600;4.608;2023-07-31T05:38:20;8.82;;;2.10;;
22415;SDS011;12204;50.600;4.608;2023-07-31T05:43:23;15.70;;;1.95;;
22415;SDS011;12204;50.600;4.608;2023-07-31T05:48:28;9.45;;;2.30;;
22415;SDS011;12204;50.600;4.608;2023-07-31T05:53:31;8.25;;;1.80;;
22415;SDS011;12204;50.600;4.608;2023-07-31T05:58:36;11.88;;;2.20;;
22415;SDS011;12204;50.600;4.608;2023-07-31T06:03:40;8.57;;;2.10;;
22415;SDS011;12204;50.600;4.608;2023-07-31T06:08:44;9.77;;;2.30;;
22415;SDS011;12204;50.600;4.608;2023-07-31T06:13:48;10.55;;;2.17;;
22415;SDS011;12204;50.600;4.608;2023-07-31T06:18:52;17.13;;;2.40;;
22415;SDS011;12204;50.600;4.608;2023-07-31T06:29:02;10.90;;;2.25;;
22415;SDS011;12204;50.600;4.608;2023-07-31T06:34:07;9.43;;;2.20;;
22415;SDS011;12204;50.600;4.608;2023-07-31T06:39:10;6.35;;;1.85;;
22415;SDS011;12204;50.600;4.608;2023-07-31T06:44:14;7.70;;;2.00;;
22415;SDS011;12204;50.600;4.608;2023-07-31T06:49:19;6.38;;;1.90;;
22415;SDS011;12204;50.600;4.608;2023-07-31T06:54:23;7.68;;;2.00;;
22415;SDS011;12204;50.600;4.608;2023-07-31T06:59:26;6.25;;;1.95;;
22415;SDS011;12204;50.600;4.608;2023-07-31T07:04:31;4.85;;;1.83;;
22415;SDS011;12204;50.600;4.608;2023-07-31T07:09:34;7.10;;;2.20;;
22415;SDS011;12204;50.600;4.608;2023-07-31T07:14:38;7.47;;;1.70;;
22415;SDS011;12204;50.600;4.608;2023-07-31T07:19:43;5.05;;;1.70;;
22415;SDS011;12204;50.600;4.608;2023-07-31T07:24:47;8.30;;;1.80;;
22415;SDS011;12204;50.600;4.608;2023-07-31T07:29:50;5.25;;;1.83;;
22415;SDS011;12204;50.600;4.608;2023-07-31T07:34:56;6.95;;;2.00;;
22415;SDS011;12204;50.600;4.608;2023-07-31T07:40:02;4.95;;;1.60;;
22415;SDS011;12204;50.600;4.608;2023-07-31T07:45:08;5.90;;;1.85;;
22415;SDS011;12204;50.600;4.608;2023-07-31T07:50:14;5.47;;;1.80;;
22415;SDS011;12204;50.600;4.608;2023-07-31T07:55:17;6.00;;;1.70;;
22415;SDS011;12204;50.600;4.608;2023-07-31T08:00:21;5.07;;;1.60;;
22415;SDS011;12204;50.600;4.608;2023-07-31T08:05:27;4.55;;;1.70;;
22415;SDS011;12204;50.600;4.608;2023-07-31T08:10:33;4.65;;;1.70;;
22415;SDS011;12204;50.600;4.608;2023-07-31T08:15:37;4.47;;;1.60;;
22415;SDS011;12204;50.600;4.608;2023-07-31T08:20:43;4.82;;;1.65;;
22415;SDS011;12204;50.600;4.608;2023-07-31T08:25:47;5.30;;;1.83;;
22415;SDS011;12204;50.600;4.608;2023-07-31T08:30:52;4.57;;;1.70;;
22415;SDS011;12204;50.600;4.608;2023-07-31T08:35:57;3.40;;;1.50;;
22415;SDS011;12204;50.600;4.608;2023-07-31T08:41:00;4.68;;;1.73;;
22415;SDS011;12204;50.600;4.608;2023-07-31T08:46:07;4.78;;;1.60;;
22415;SDS011;12204;50.600;4.608;2023-07-31T08:51:13;5.65;;;1.80;;
22415;SDS011;12204;50.600;4.608;2023-07-31T08:56:18;4.00;;;1.50;;
22415;SDS011;12204;50.600;4.608;2023-07-31T09:01:22;5.55;;;1.67;;
22415;SDS011;12204;50.600;4.608;2023-07-31T09:06:28;3.87;;;1.57;;
22415;SDS011;12204;50.600;4.608;2023-07-31T09:11:33;4.15;;;1.50;;
22415;SDS011;12204;50.600;4.608;2023-07-31T09:16:36;4.03;;;1.55;;
22415;SDS011;12204;50.600;4.608;2023-07-31T09:21:57;4.35;;;1.60;;
22415;SDS011;12204;50.600;4.608;2023-07-31T09:27:01;3.50;;;1.40;;
22415;SDS011;12204;50.600;4.608;2023-07-31T09:32:05;2.90;;;1.20;;
22415;SDS011;12204;50.600;4.608;2023-07-31T09:37:20;5.50;;;1.58;;
22415;SDS011;12204;50.600;4.608;2023-07-31T09:42:24;3.40;;;1.40;;
22415;SDS011;12204;50.600;4.608;2023-07-31T09:47:29;3.20;;;1.40;;
22415;SDS011;12204;50.600;4.608;2023-07-31T09:52:34;4.38;;;1.40;;
22415;SDS011;12204;50.600;4.608;2023-07-31T09:57:42;4.25;;;1.45;;
22415;SDS011;12204;50.600;4.608;2023-07-31T10:02:49;4.43;;;1.40;;
22415;SDS011;12204;50.600;4.608;2023-07-31T10:07:55;3.85;;;1.50;;
22415;SDS011;12204;50.600;4.608;2023-07-31T10:13:00;3.80;;;1.42;;
22415;SDS011;12204;50.600;4.608;2023-07-31T10:18:05;5.10;;;1.40;;
22415;SDS011;12204;50.600;4.608;2023-07-31T10:23:11;3.92;;;1.65;;
22415;SDS011;12204;50.600;4.608;2023-07-31T10:28:15;3.50;;;1.42;;
22415;SDS011;12204;50.600;4.608;2023-07-31T10:33:19;3.85;;;1.50;;
22415;SDS011;12204;50.600;4.608;2023-07-31T10:38:24;3.08;;;1.40;;
22415;SDS011;12204;50.600;4.608;2023-07-31T10:43:28;5.13;;;1.52;;
22415;SDS011;12204;50.600;4.608;2023-07-31T10:48:32;3.92;;;1.20;;
22415;SDS011;12204;50.600;4.608;2023-07-31T10:53:39;4.03;;;1.33;;
22415;SDS011;12204;50.600;4.608;2023-07-31T10:58:44;2.90;;;1.27;;
22415;SDS011;12204;50.600;4.608;2023-07-31T11:03:48;3.60;;;1.50;;
22415;SDS011;12204;50.600;4.608;2023-07-31T11:08:55;3.75;;;1.33;;
22415;SDS011;12204;50.600;4.608;2023-07-31T11:13:59;3.05;;;1.30;;
22415;SDS011;12204;50.600;4.608;2023-07-31T11:19:02;3.72;;;1.77;;
22415;SDS011;12204;50.600;4.608;2023-07-31T11:24:12;3.22;;;1.40;;
22415;SDS011;12204;50.600;4.608;2023-07-31T11:29:16;3.40;;;1.40;;
22415;SDS011;12204;50.600;4.608;2023-07-31T11:34:20;4.55;;;1.60;;
22415;SDS011;12204;50.600;4.608;2023-07-31T11:39:25;3.83;;;1.38;;
22415;SDS011;12204;50.600;4.608;2023-07-31T11:44:37;3.65;;;1.63;;
22415;SDS011;12204;50.600;4.608;2023-07-31T11:49:44;3.25;;;1.33;;
22415;SDS011;12204;50.600;4.608;2023-07-31T11:54:49;3.65;;;1.45;;
22415;SDS011;12204;50.600;4.608;2023-07-31T11:59:53;5.20;;;1.58;;
22415;SDS011;12204;50.600;4.608;2023-07-31T12:04:57;3.70;;;1.50;;
22415;SDS011;12204;50.600;4.608;2023-07-31T12:10:02;4.30;;;1.50;;
22415;SDS011;12204;50.600;4.608;2023-07-31T12:15:13;3.55;;;1.40;;
22415;SDS011;12204;50.600;4.608;2023-07-31T12:20:19;4.95;;;1.60;;
22415;SDS011;12204;50.600;4.608;2023-07-31T12:25:25;3.85;;;1.60;;
22415;SDS011;12204;50.600;4.608;2023-07-31T12:30:33;3.75;;;1.40;;
22415;SDS011;12204;50.600;4.608;2023-07-31T12:35:37;3.28;;;1.30;;
22415;SDS011;12204;50.600;4.608;2023-07-31T12:45:49;3.53;;;1.38;;
22415;SDS011;12204;50.600;4.608;2023-07-31T12:50:53;4.20;;;1.60;;
22415;SDS011;12204;50.600;4.608;2023-07-31T12:55:58;3.17;;;1.48;;
22415;SDS011;12204;50.600;4.608;2023-07-31T13:01:02;3.17;;;1.45;;
22415;SDS011;12204;50.600;4.608;2023-07-31T13:06:05;3.80;;;1.50;;
22415;SDS011;12204;50.600;4.608;2023-07-31T13:11:10;3.35;;;1.58;;
22415;SDS011;12204;50.600;4.608;2023-07-31T13:16:13;3.95;;;1.52;;
22415;SDS011;12204;50.600;4.608;2023-07-31T13:21:17;3.55;;;1.50;;
22415;SDS011;12204;50.600;4.608;2023-07-31T13:26:22;3.17;;;1.40;;
22415;SDS011;12204;50.600;4.608;2023-07-31T13:31:25;3.25;;;1.40;;
22415;SDS011;12204;50.600;4.608;2023-07-31T13:36:29;4.15;;;1.40;;
22415;SDS011;12204;50.600;4.608;2023-07-31T13:41:34;3.75;;;1.40;;
22415;SDS011;12204;50.600;4.608;2023-07-31T13:46:38;4.00;;;1.50;;
22415;SDS011;12204;50.600;4.608;2023-07-31T13:51:42;3.35;;;1.30;;
22415;SDS011;12204;50.600;4.608;2023-07-31T13:56:46;3.17;;;1.35;;
22415;SDS011;12204;50.600;4.608;2023-07-31T14:01:50;3.08;;;1.17;;
22415;SDS011;12204;50.600;4.608;2023-07-31T14:06:55;3.40;;;1.35;;
22415;SDS011;12204;50.600;4.608;2023-07-31T14:12:00;3.50;;;1.40;;
22415;SDS011;12204;50.600;4.608;2023-07-31T14:17:05;3.05;;;1.50;;
22415;SDS011;12204;50.600;4.608;2023-07-31T14:22:08;3.13;;;1.33;;
22415;SDS011;12204;50.600;4.608;2023-07-31T14:27:13;3.38;;;1.30;;
22415;SDS011;12204;50.600;4.608;2023-07-31T14:32:17;4.13;;;1.40;;
22415;SDS011;12204;50.600;4.608;2023-07-31T14:37:21;3.30;;;1.30;;
22415;SDS011;12204;50.600;4.608;2023-07-31T14:42:26;4.50;;;1.58;;
22415;SDS011;12204;50.600;4.608;2023-07-31T14:47:29;3.25;;;1.30;;
22415;SDS011;12204;50.600;4.608;2023-07-31T14:52:33;3.28;;;1.42;;
22415;SDS011;12204;50.600;4.608;2023-07-31T14:57:38;3.88;;;1.38;;
22415;SDS011;12204;50.600;4.608;2023-07-31T15:02:41;2.85;;;1.30;;
22415;SDS011;12204;50.600;4.608;2023-07-31T15:07:45;2.83;;;1.17;;
22415;SDS011;12204;50.600;4.608;2023-07-31T15:12:50;2.67;;;1.10;;
22415;SDS011;12204;50.600;4.608;2023-07-31T15:17:53;3.03;;;1.20;;
22415;SDS011;12204;50.600;4.608;2023-07-31T15:22:58;3.70;;;1.40;;
22415;SDS011;12204;50.600;4.608;2023-07-31T15:28:03;2.78;;;1.30;;
22415;SDS011;12204;50.600;4.608;2023-07-31T15:33:08;2.78;;;1.25;;
22415;SDS011;12204;50.600;4.608;2023-07-31T15:38:12;3.47;;;1.50;;
22415;SDS011;12204;50.600;4.608;2023-07-31T15:43:17;3.72;;;1.40;;
22415;SDS011;12204;50.600;4.608;2023-07-31T15:48:22;3.57;;;1.30;;
22415;SDS011;12204;50.600;4.608;2023-07-31T15:53:26;3.03;;;1.20;;
22415;SDS011;12204;50.600;4.608;2023-07-31T15:58:31;3.10;;;1.20;;
22415;SDS011;12204;50.600;4.608;2023-07-31T16:03:34;2.55;;;1.00;;
22415;SDS011;12204;50.600;4.608;2023-07-31T16:08:38;3.22;;;1.40;;
22415;SDS011;12204;50.600;4.608;2023-07-31T16:13:44;3.05;;;1.40;;
22415;SDS011;12204;50.600;4.608;2023-07-31T16:18:47;2.75;;;1.20;;
22415;SDS011;12204;50.600;4.608;2023-07-31T16:23:51;2.47;;;1.20;;
22415;SDS011;12204;50.600;4.608;2023-07-31T16:28:56;2.35;;;1.10;;
22415;SDS011;12204;50.600;4.608;2023-07-31T16:33:59;2.75;;;1.15;;
22415;SDS011;12204;50.600;4.608;2023-07-31T16:39:03;2.30;;;1.10;;
22415;SDS011;12204;50.600;4.608;2023-07-31T16:44:08;2.55;;;1.17;;
22415;SDS011;12204;50.600;4.608;2023-07-31T16:49:15;2.15;;;1.10;;
22415;SDS011;12204;50.600;4.608;2023-07-31T16:54:19;1.98;;;1.10;;
22415;SDS011;12204;50.600;4.608;2023-07-31T16:59:24;2.60;;;1.10;;
22415;SDS011;12204;50.600;4.608;2023-07-31T17:04:27;2.83;;;1.15;;
22415;SDS011;12204;50.600;4.608;2023-07-31T17:09:32;2.97;;;1.02;;
22415;SDS011;12204;50.600;4.608;2023-07-31T17:14:37;2.25;;;1.10;;
22415;SDS011;12204;50.600;4.608;2023-07-31T17:19:40;1.92;;;1.10;;
22415;SDS011;12204;50.600;4.608;2023-07-31T17:24:44;2.60;;;1.10;;
22415;SDS011;12204;50.600;4.608;2023-07-31T17:29:49;2.35;;;1.20;;
22415;SDS011;12204;50.600;4.608;2023-07-31T17:34:53;2.53;;;1.10;;
22415;SDS011;12204;50.600;4.608;2023-07-31T17:39:56;2.58;;;1.15;;
22415;SDS011;12204;50.600;4.608;2023-07-31T17:45:01;2.35;;;1.08;;
22415;SDS011;12204;50.600;4.608;2023-07-31T17:50:06;2.35;;;1.10;;
22415;SDS011;12204;50.600;4.608;2023-07-31T17:55:11;2.47;;;1.10;;
22415;SDS011;12204;50.600;4.608;2023-07-31T18:00:15;2.40;;;1.10;;
22415;SDS011;12204;50.600;4.608;2023-07-31T18:05:19;2.55;;;1.10;;
22415;SDS011;12204;50.600;4.608;2023-07-31T18:10:23;1.80;;;1.00;;
22415;SDS011;12204;50.600;4.608;2023-07-31T18:15:28;3.03;;;1.30;;
22415;SDS011;12204;50.600;4.608;2023-07-31T18:20:31;2.78;;;1.08;;
22415;SDS011;12204;50.600;4.608;2023-07-31T18:25:35;1.92;;;1.00;;
22415;SDS011;12204;50.600;4.608;2023-07-31T18:30:40;2.35;;;1.00;;
22415;SDS011;12204;50.600;4.608;2023-07-31T18:35:43;2.15;;;1.00;;
22415;SDS011;12204;50.600;4.608;2023-07-31T18:40:46;2.42;;;1.02;;
22415;SDS011;12204;50.600;4.608;2023-07-31T18:45:51;2.60;;;1.05;;
22415;SDS011;12204;50.600;4.608;2023-07-31T18:50:55;2.42;;;0.90;;
22415;SDS011;12204;50.600;4.608;2023-07-31T18:55:58;2.60;;;1.10;;
22415;SDS011;12204;50.600;4.608;2023-07-31T19:01:03;2.60;;;1.10;;
22415;SDS011;12204;50.600;4.608;2023-07-31T19:06:07;3.38;;;1.10;;
22415;SDS011;12204;50.600;4.608;2023-07-31T19:11:10;2.38;;;1.10;;
22415;SDS011;12204;50.600;4.608;2023-07-31T19:16:33;2.85;;;1.10;;
22415;SDS011;12204;50.600;4.608;2023-07-31T19:21:37;1.75;;;0.90;;
22415;SDS011;12204;50.600;4.608;2023-07-31T19:26:40;2.03;;;0.98;;
22415;SDS011;12204;50.600;4.608;2023-07-31T19:31:46;2.10;;;1.08;;
22415;SDS011;12204;50.600;4.608;2023-07-31T19:36:49;2.63;;;1.00;;
22415;SDS011;12204;50.600;4.608;2023-07-31T19:41:53;2.08;;;0.93;;
22415;SDS011;12204;50.600;4.608;2023-07-31T19:46:58;1.95;;;0.90;;
22415;SDS011;12204;50.600;4.608;2023-07-31T19:52:06;2.33;;;1.00;;
22415;SDS011;12204;50.600;4.608;2023-07-31T19:57:10;1.80;;;0.90;;
22415;SDS011;12204;50.600;4.608;2023-07-31T20:02:14;1.55;;;0.80;;
22415;SDS011;12204;50.600;4.608;2023-07-31T20:07:18;3.03;;;1.20;;
22415;SDS011;12204;50.600;4.608;2023-07-31T20:12:23;2.47;;;1.10;;
22415;SDS011;12204;50.600;4.608;2023-07-31T20:17:29;2.75;;;1.10;;
22415;SDS011;12204;50.600;4.608;2023-07-31T20:22:33;3.42;;;0.98;;
22415;SDS011;12204;50.600;4.608;2023-07-31T20:27:37;3.42;;;1.00;;
22415;SDS011;12204;50.600;4.608;2023-07-31T20:32:42;4.90;;;1.10;;
22415;SDS011;12204;50.600;4.608;2023-07-31T20:37:46;5.75;;;1.02;;
22415;SDS011;12204;50.600;4.608;2023-07-31T20:42:54;12.23;;;1.40;;
22415;SDS011;12204;50.600;4.608;2023-07-31T20:48:02;9.07;;;1.85;;
22415;SDS011;12204;50.600;4.608;2023-07-31T20:53:08;5.78;;;1.27;;
22415;SDS011;12204;50.600;4.608;2023-07-31T20:58:12;15.18;;;1.73;;
22415;SDS011;12204;50.600;4.608;2023-07-31T21:03:17;9.52;;;1.70;;
22415;SDS011;12204;50.600;4.608;2023-07-31T21:08:21;6.93;;;1.23;;
22415;SDS011;12204;50.600;4.608;2023-07-31T21:13:25;8.82;;;1.45;;
22415;SDS011;12204;50.600;4.608;2023-07-31T21:18:30;10.43;;;1.35;;
22415;SDS011;12204;50.600;4.608;2023-07-31T21:23:33;8.10;;;1.30;;
22415;SDS011;12204;50.600;4.608;2023-07-31T21:28:37;7.53;;;1.52;;
22415;SDS011;12204;50.600;4.608;2023-07-31T21:33:42;6.20;;;1.50;;
22415;SDS011;12204;50.600;4.608;2023-07-31T21:38:45;10.45;;;1.70;;
22415;SDS011;12204;50.600;4.608;2023-07-31T21:43:49;7.97;;;1.50;;
22415;SDS011;12204;50.600;4.608;2023-07-31T21:48:54;14.70;;;1.60;;
22415;SDS011;12204;50.600;4.608;2023-07-31T21:53:58;6.57;;;1.40;;
22415;SDS011;12204;50.600;4.608;2023-07-31T21:59:02;9.40;;;1.55;;
22415;SDS011;12204;50.600;4.608;2023-07-31T22:04:07;10.05;;;1.75;;
22415;SDS011;12204;50.600;4.608;2023-07-31T22:09:10;6.70;;;1.42;;
22415;SDS011;12204;50.600;4.608;2023-07-31T22:14:14;6.07;;;1.42;;
22415;SDS011;12204;50.600;4.608;2023-07-31T22:19:19;7.53;;;1.40;;
22415;SDS011;12204;50.600;4.608;2023-07-31T22:24:23;7.65;;;1.48;;
22415;SDS011;12204;50.600;4.608;2023-07-31T22:29:27;9.43;;;1.85;;
22415;SDS011;12204;50.600;4.608;2023-07-31T22:34:41;9.23;;;1.60;;
22415;SDS011;12204;50.600;4.608;2023-07-31T22:39:58;7.78;;;1.85;;
22415;SDS011;12204;50.600;4.608;2023-07-31T22:45:02;9.23;;;1.73;;
22415;SDS011;12204;50.600;4.608;2023-07-31T22:50:09;6.65;;;1.60;;
22415;SDS011;12204;50.600;4.608;2023-07-31T22:55:12;8.05;;;1.95;;
22415;SDS011;12204;50.600;4.608;2023-07-31T23:00:16;8.35;;;1.88;;
22415;SDS011;12204;50.600;4.608;2023-07-31T23:05:21;7.32;;;1.88;;
22415;SDS011;12204;50.600;4.608;2023-07-31T23:10:25;7.78;;;1.77;;
22415;SDS011;12204;50.600;4.608;2023-07-31T23:15:30;7.35;;;1.70;;
22415;SDS011;12204;50.600;4.608;2023-07-31T23:20:35;10.05;;;1.80;;
22415;SDS011;12204;50.600;4.608;2023-07-31T23:25:38;8.18;;;1.65;;
22415;SDS011;12204;50.600;4.608;2023-07-31T23:30:42;7.40;;;1.85;;
22415;SDS011;12204;50.600;4.608;2023-07-31T23:35:47;7.22;;;1.88;;
22415;SDS011;12204;50.600;4.608;2023-07-31T23:40:51;7.10;;;1.77;;
22415;SDS011;12204;50.600;4.608;2023-07-31T23:45:54;7.85;;;1.98;;
22415;SDS011;12204;50.600;4.608;2023-07-31T23:50:59;6.80;;;1.65;;
22415;SDS011;12204;50.600;4.608;2023-07-31T23:56:04;5.22;;;1.40;;
